Time;durP1;ratioP1;P1;durP2;ratioP2;P2;SDS_P1;SDS_P2;PMS_P1;PMS_P2;Temp;Humidity;BMP_temperature;BMP_pressure;BME280_temperature;BME280_humidity;BME280_pressure;Samples;Min_cycle;Max_cycle;Signal;HPM_P1;HPM_P2
2022/08/01 00:01:37;;;;;;;3.63;1.90;;;;;;;20.05;100.00;99874.84;1758035;80;21045;-60
2022/08/01 00:04:05;;;;;;;4.73;2.07;;;;;;;20.00;100.00;99878.75;1759396;81;21575;-58
2022/08/01 00:06:32;;;;;;;4.10;1.77;;;;;;;19.95;100.00;99880.84;1758868;80;21628;-58
2022/08/01 00:09:00;;;;;;;3.80;2.10;;;;;;;19.90;100.00;99880.82;1759261;80;21073;-58
2022/08/01 00:11:28;;;;;;;3.27;1.90;;;;;;;19.87;100.00;99877.35;1758828;80;21163;-59
2022/08/01 00:13:56;;;;;;;4.23;1.90;;;;;;;19.83;100.00;99877.59;1759461;81;21095;-58
2022/08/01 00:16:24;;;;;;;4.90;2.07;;;;;;;19.77;100.00;99879.38;1758893;80;21079;-68
2022/08/01 00:18:51;;;;;;;4.30;2.30;;;;;;;19.76;100.00;99880.97;1759369;80;21000;-57
2022/08/01 00:21:18;;;;;;;3.67;1.93;;;;;;;19.74;100.00;99883.09;1759851;80;21056;-57
2022/08/01 00:23:45;;;;;;;4.97;1.97;;;;;;;19.72;100.00;99877.23;1758877;80;21701;-58
2022/08/01 00:26:13;;;;;;;5.27;2.10;;;;;;;19.71;100.00;99880.94;1759527;80;21060;-60
2022/08/01 00:28:41;;;;;;;4.67;2.27;;;;;;;19.67;100.00;99878.79;1759461;81;21138;-57
2022/08/01 00:31:08;;;;;;;5.77;2.30;;;;;;;19.66;100.00;99877.70;1759838;81;21524;-57
2022/08/01 00:33:35;;;;;;;4.53;2.07;;;;;;;19.64;100.00;99879.82;1759065;80;20972;-67
2022/08/01 00:36:03;;;;;;;5.23;2.73;;;;;;;19.64;100.00;99885.11;1759472;80;21659;-57
2022/08/01 00:38:31;;;;;;;4.23;2.63;;;;;;;19.65;100.00;99888.02;1759074;81;21486;-57
2022/08/01 00:40:58;;;;;;;5.00;2.33;;;;;;;19.65;100.00;99881.41;1759758;80;20976;-58
2022/08/01 00:43:25;;;;;;;4.60;2.33;;;;;;;19.64;100.00;99882.47;1759191;80;20993;-58
2022/08/01 00:45:54;;;;;;;5.83;2.80;;;;;;;19.65;100.00;99894.09;1759024;80;20939;-58
2022/08/01 00:48:21;;;;;;;5.27;2.67;;;;;;;19.62;100.00;99884.05;1758553;80;22452;-58
2022/08/01 00:50:49;;;;;;;6.67;2.10;;;;;;;19.62;100.00;99889.83;1759541;80;21314;-57
2022/08/01 00:53:16;;;;;;;4.90;1.97;;;;;;;19.61;100.00;99891.66;1759536;80;20993;-58
2022/08/01 00:55:43;;;;;;;5.23;2.10;;;;;;;19.56;100.00;99885.02;1759064;80;21039;-59
2022/08/01 00:58:10;;;;;;;4.00;2.47;;;;;;;19.53;100.00;99879.42;1758943;81;21662;-64
2022/08/01 01:00:38;;;;;;;4.90;2.67;;;;;;;19.50;100.00;99883.36;1759776;81;21531;-58
2022/08/01 01:03:05;;;;;;;4.40;2.30;;;;;;;19.48;100.00;99886.80;1759300;81;21043;-57
2022/08/01 01:05:36;;;;;;;7.03;2.63;;;;;;;19.46;100.00;99882.27;1759033;80;21536;-66
2022/08/01 01:08:10;;;;;;;5.75;2.33;;;;;;;19.41;100.00;99878.27;1758939;80;21412;-66
2022/08/01 01:10:48;;;;;;;8.63;3.07;;;;;;;19.38;100.00;99873.47;1759645;80;21107;-57
2022/08/01 01:13:29;;;;;;;6.63;2.47;;;;;;;19.34;100.00;99869.73;1759150;81;21111;-58
2022/08/01 01:16:00;;;;;;;8.80;2.80;;;;;;;19.28;100.00;99872.05;1759123;80;21008;-58
2022/08/01 01:18:51;;;;;;;3.97;2.47;;;;;;;19.28;100.00;99868.08;1759674;80;21007;-58
2022/08/01 01:21:35;;;;;;;4.87;2.60;;;;;;;19.23;100.00;99870.16;1759768;80;21303;-66
2022/08/01 01:24:29;;;;;;;6.00;2.90;;;;;;;19.22;100.00;99865.92;1759544;80;21074;-58
2022/08/01 01:27:04;;;;;;;5.37;2.37;;;;;;;19.23;100.00;99864.87;1759401;81;21367;-66
2022/08/01 01:29:41;;;;;;;3.93;2.30;;;;;;;19.13;100.00;99864.77;1755263;80;21409;-58
2022/08/01 01:32:21;;;;;;;6.00;2.23;;;;;;;19.16;100.00;99873.52;1758894;80;20934;-57
2022/08/01 01:34:49;;;;;;;9.20;3.23;;;;;;;19.13;100.00;99868.23;1759200;80;21093;-60
2022/08/01 01:37:19;;;;;;;5.60;2.23;;;;;;;19.08;100.00;99862.88;1759705;80;21063;-58
2022/08/01 01:39:48;;;;;;;5.03;2.53;;;;;;;19.06;100.00;99861.55;1758991;81;21186;-59
2022/08/01 01:42:15;;;;;;;3.63;2.20;;;;;;;19.01;100.00;99857.51;1759753;80;21125;-59
2022/08/01 01:44:44;;;;;;;5.23;2.90;;;;;;;18.93;100.00;99852.14;1759627;80;21047;-58
2022/08/01 01:47:12;;;;;;;5.70;2.90;;;;;;;18.94;100.00;99847.95;1758900;81;20878;-60
2022/08/01 01:49:41;;;;;;;9.50;3.10;;;;;;;18.92;100.00;99850.03;1758887;80;21016;-59
2022/08/01 01:52:08;;;;;;;6.17;3.23;;;;;;;18.89;100.00;99848.41;1759984;80;21556;-58
2022/08/01 01:54:39;;;;;;;8.40;2.30;;;;;;;18.87;100.00;99852.62;1759738;81;21001;-58
2022/08/01 01:57:07;;;;;;;7.50;2.43;;;;;;;18.86;100.00;99850.21;1759470;81;21052;-58
2022/08/01 01:59:36;;;;;;;6.00;3.13;;;;;;;18.85;100.00;99853.38;1758729;81;20952;-58
2022/08/01 02:02:04;;;;;;;4.67;2.77;;;;;;;18.83;100.00;99858.66;1759733;81;21079;-58
2022/08/01 02:04:32;;;;;;;4.97;3.00;;;;;;;18.82;100.00;99857.03;1759930;80;21085;-59
2022/08/01 02:07:00;;;;;;;5.53;2.90;;;;;;;18.83;100.00;99858.66;1758951;80;21453;-58
2022/08/01 02:09:28;;;;;;;7.57;2.30;;;;;;;18.85;100.00;99860.51;1759118;80;21628;-64
2022/08/01 02:11:55;;;;;;;6.47;2.60;;;;;;;18.85;100.00;99858.66;1759636;81;21373;-58
2022/08/01 02:14:23;;;;;;;7.63;3.10;;;;;;;18.88;100.00;99853.42;1759415;80;21053;-58
2022/08/01 02:16:50;;;;;;;7.50;3.37;;;;;;;18.92;100.00;99851.34;1759388;80;21308;-68
2022/08/01 02:19:17;;;;;;;6.27;2.80;;;;;;;18.95;100.00;99855.34;1758577;80;20997;-65
2022/08/01 02:22:13;;;;;;;5.07;2.60;;;;;;;18.97;100.00;99861.16;1759528;80;22369;-58
2022/08/01 02:25:00;;;;;;;5.57;2.90;;;;;;;18.93;100.00;99850.30;1759751;80;21001;-69
2022/08/01 02:27:35;;;;;;;5.63;2.93;;;;;;;18.98;100.00;99847.44;1758176;80;21296;-58
2022/08/01 02:30:07;;;;;;;7.13;3.00;;;;;;;18.99;100.00;99849.05;1758990;80;22049;-58
2022/08/01 02:32:49;;;;;;;5.47;2.53;;;;;;;18.98;100.00;99840.33;1759006;80;20945;-62
2022/08/01 02:35:26;;;;;;;4.37;2.73;;;;;;;18.98;100.00;99839.02;1759637;81;21016;-58
2022/08/01 02:37:54;;;;;;;5.47;2.70;;;;;;;19.04;100.00;99840.64;1759741;80;21012;-58
2022/08/01 02:40:21;;;;;;;7.43;3.20;;;;;;;19.03;100.00;99846.98;1758960;80;21056;-60
2022/08/01 02:42:50;;;;;;;7.63;3.17;;;;;;;19.05;100.00;99842.23;1758849;80;21293;-58
2022/08/01 02:45:18;;;;;;;4.33;2.77;;;;;;;19.08;100.00;99843.05;1759326;80;21248;-58
2022/08/01 02:47:46;;;;;;;5.20;2.67;;;;;;;19.11;100.00;99841.77;1759647;80;20980;-58
2022/08/01 02:50:14;;;;;;;7.23;3.07;;;;;;;19.16;100.00;99843.13;1771115;80;21541;-59
2022/08/01 02:52:42;;;;;;;6.47;3.17;;;;;;;19.18;100.00;99845.81;1759308;80;21586;-57
2022/08/01 02:55:09;;;;;;;7.03;2.80;;;;;;;19.19;100.00;99840.79;1759816;81;21162;-57
2022/08/01 02:57:38;;;;;;;6.90;3.13;;;;;;;19.25;100.00;99842.97;1759511;80;20996;-57
2022/08/01 03:00:07;;;;;;;6.10;3.70;;;;;;;19.32;100.00;99840.93;1760104;80;21532;-68
2022/08/01 03:02:35;;;;;;;7.97;4.10;;;;;;;19.42;100.00;99834.39;1759314;81;20988;-60
2022/08/01 03:05:03;;;;;;;7.40;3.23;;;;;;;19.49;100.00;99843.44;1759250;81;21103;-58
2022/08/01 03:07:30;;;;;;;7.87;3.43;;;;;;;19.58;100.00;99830.02;1759450;80;21154;-60
2022/08/01 03:09:59;;;;;;;8.07;3.30;;;;;;;19.75;100.00;99832.58;1756474;80;21515;-57
2022/08/01 03:12:27;;;;;;;10.13;3.67;;;;;;;19.96;100.00;99832.70;1758404;81;21023;-66
2022/08/01 03:14:55;;;;;;;9.00;3.40;;;;;;;20.42;100.00;99817.88;1758767;81;21017;-57
2022/08/01 03:17:24;;;;;;;8.37;3.53;;;;;;;21.00;100.00;99818.60;1758988;80;21115;-58
2022/08/01 03:19:52;;;;;;;6.43;2.90;;;;;;;21.57;100.00;99822.12;1758959;81;21238;-58
2022/08/01 03:22:21;;;;;;;5.83;3.63;;;;;;;22.01;100.00;99815.70;1759388;80;20942;-66
2022/08/01 03:24:50;;;;;;;8.63;3.40;;;;;;;22.46;100.00;99812.63;1758376;81;21417;-61
2022/08/01 03:27:20;;;;;;;6.27;3.43;;;;;;;22.89;100.00;99822.27;1759413;80;21128;-57
2022/08/01 03:29:49;;;;;;;6.50;3.03;;;;;;;23.24;100.00;99819.92;1758877;81;20986;-59
2022/08/01 03:32:16;;;;;;;6.40;3.00;;;;;;;23.61;100.00;99818.57;1759455;81;21142;-58
2022/08/01 03:34:44;;;;;;;11.47;4.10;;;;;;;23.81;100.00;99830.91;1758377;80;21044;-58
2022/08/01 03:37:26;;;;;;;6.10;2.80;;;;;;;24.00;100.00;99819.80;1759148;80;21466;-57
2022/08/01 03:40:00;;;;;;;8.10;3.10;;;;;;;24.31;99.40;99824.79;1731920;81;21036;-67
2022/08/01 03:42:34;;;;;;;5.37;3.47;;;;;;;24.69;94.11;99818.22;1758599;81;21060;-65
2022/08/01 03:45:12;;;;;;;6.07;3.33;;;;;;;25.00;91.22;99822.57;1759033;81;21107;-57
2022/08/01 03:47:37;;;;;;;6.03;2.90;;;;;;;25.36;84.29;99819.40;1756967;81;21017;-57
2022/08/01 03:50:05;;;;;;;8.00;3.87;;;;;;;25.54;80.66;99825.78;1758640;81;21047;-67
2022/08/01 03:52:33;;;;;;;9.20;3.63;;;;;;;25.53;78.20;99821.52;1758858;80;21453;-57
2022/08/01 03:55:08;;;;;;;9.93;3.63;;;;;;;25.65;79.17;99823.98;1759567;81;21037;-57
2022/08/01 03:57:35;;;;;;;8.97;3.40;;;;;;;25.85;75.56;99826.06;1759573;81;21224;-61
2022/08/01 04:00:08;;;;;;;6.73;3.50;;;;;;;25.90;75.78;99825.96;1758977;80;21453;-64
2022/08/01 04:02:42;;;;;;;7.33;3.67;;;;;;;26.05;73.85;99819.55;1759560;81;20961;-57
2022/08/01 04:05:10;;;;;;;7.90;4.12;;;;;;;26.23;72.60;99816.53;1759885;81;21372;-58
2022/08/01 04:07:42;;;;;;;8.15;4.00;;;;;;;26.43;72.08;99816.90;1759607;81;21029;-58
2022/08/01 04:10:09;;;;;;;6.00;3.42;;;;;;;26.49;68.92;99811.50;1758804;81;21243;-57
2022/08/01 04:12:38;;;;;;;4.87;3.08;;;;;;;26.51;69.73;99802.61;1759120;81;21524;-57
2022/08/01 04:15:07;;;;;;;6.53;3.70;;;;;;;26.50;68.70;99807.17;1759142;81;21103;-60
2022/08/01 04:17:34;;;;;;;8.55;4.60;;;;;;;26.26;70.46;99811.39;1758314;81;21022;-59
2022/08/01 04:20:01;;;;;;;8.03;3.98;;;;;;;26.28;72.51;99811.08;1758464;80;20981;-60
2022/08/01 04:22:30;;;;;;;6.25;3.85;;;;;;;26.29;73.00;99806.79;1758492;81;21285;-57
2022/08/01 04:24:57;;;;;;;8.80;4.80;;;;;;;26.35;73.81;99814.93;1758598;81;21060;-57
2022/08/01 04:27:29;;;;;;;11.45;3.70;;;;;;;26.35;72.92;99814.14;1758689;81;20976;-57
2022/08/01 04:29:58;;;;;;;7.53;3.90;;;;;;;26.31;75.88;99811.27;1755415;80;21048;-57
2022/08/01 04:32:27;;;;;;;7.22;3.55;;;;;;;26.52;76.26;99817.03;1758614;80;21486;-58
2022/08/01 04:34:56;;;;;;;8.20;3.90;;;;;;;26.95;74.77;99819.84;1758989;80;21164;-58
2022/08/01 04:37:24;;;;;;;6.10;3.50;;;;;;;27.41;69.12;99816.89;1758815;80;20913;-61
2022/08/01 04:39:51;;;;;;;5.80;3.60;;;;;;;27.69;65.98;99818.84;1758065;81;21002;-57
2022/08/01 04:42:18;;;;;;;6.90;3.77;;;;;;;27.81;65.44;99824.47;1758911;81;21574;-65
2022/08/01 04:44:45;;;;;;;10.50;4.90;;;;;;;28.03;62.38;99825.48;1758658;81;20953;-57
2022/08/01 04:47:13;;;;;;;7.87;3.65;;;;;;;28.09;61.11;99827.72;1759631;81;21223;-59
2022/08/01 04:49:40;;;;;;;7.90;4.42;;;;;;;28.24;62.02;99827.06;1758438;81;20934;-58
2022/08/01 04:52:07;;;;;;;6.00;4.50;;;;;;;28.44;61.00;99821.69;1759619;81;20985;-57
2022/08/01 04:54:38;;;;;;;7.65;4.22;;;;;;;28.63;60.02;99812.80;1758528;81;20986;-57
2022/08/01 04:57:05;;;;;;;7.65;4.47;;;;;;;28.83;59.78;99812.19;1759225;81;20925;-58
2022/08/01 04:59:40;;;;;;;8.45;4.35;;;;;;;29.05;57.74;99807.78;1758181;80;21131;-58
2022/08/01 05:02:17;;;;;;;6.55;4.58;;;;;;;29.25;57.80;99813.06;1758410;81;21467;-67
2022/08/01 05:04:45;;;;;;;7.00;4.67;;;;;;;29.53;55.92;99814.25;1758893;81;21715;-57
2022/08/01 05:07:12;;;;;;;7.35;4.80;;;;;;;29.66;54.96;99807.67;1750858;80;20987;-59
2022/08/01 05:09:46;;;;;;;6.97;4.78;;;;;;;29.75;55.06;99809.23;1751399;81;21542;-58
2022/08/01 05:12:12;;;;;;;7.22;4.87;;;;;;;29.95;54.22;99820.38;1750984;81;21246;-58
2022/08/01 05:14:39;;;;;;;9.60;5.15;;;;;;;30.13;53.91;99816.49;1751351;81;21832;-57
2022/08/01 05:17:07;;;;;;;7.80;4.33;;;;;;;30.34;53.24;99810.38;1751594;81;21471;-62
2022/08/01 05:19:35;;;;;;;7.03;4.75;;;;;;;30.60;53.83;99808.87;1750834;81;21034;-57
2022/08/01 05:22:04;;;;;;;6.50;4.37;;;;;;;31.01;51.33;99800.01;1750804;80;21108;-59
2022/08/01 05:24:32;;;;;;;8.18;4.67;;;;;;;31.16;51.04;99805.34;1751638;81;21159;-58
2022/08/01 05:26:59;;;;;;;7.47;4.17;;;;;;;31.31;50.63;99806.64;1751202;81;20880;-61
2022/08/01 05:29:27;;;;;;;6.22;4.17;;;;;;;31.46;50.15;99805.44;1750567;81;21053;-60
2022/08/01 05:31:54;;;;;;;6.47;4.20;;;;;;;31.75;50.68;99805.05;1751100;81;21279;-65
2022/08/01 05:34:21;;;;;;;6.65;4.40;;;;;;;32.23;48.34;99815.03;1750720;81;21495;-57
2022/08/01 05:36:48;;;;;;;6.75;4.17;;;;;;;32.41;47.38;99808.09;1751690;81;21101;-57
2022/08/01 05:39:17;;;;;;;6.92;4.50;;;;;;;32.41;46.30;99812.91;1750606;81;20962;-58
2022/08/01 05:41:44;;;;;;;6.62;4.30;;;;;;;32.44;46.72;99804.71;1751171;81;21073;-58
2022/08/01 05:44:11;;;;;;;6.40;4.33;;;;;;;32.49;46.76;99812.56;1751289;81;21476;-67
2022/08/01 05:46:39;;;;;;;8.33;4.25;;;;;;;32.45;46.36;99807.62;1751218;81;21558;-58
2022/08/01 05:49:06;;;;;;;7.35;4.47;;;;;;;32.43;47.41;99814.72;1750353;81;21144;-58
2022/08/01 05:51:34;;;;;;;9.38;4.70;;;;;;;32.52;46.37;99819.98;1751073;81;21489;-58
2022/08/01 05:54:02;;;;;;;7.53;5.12;;;;;;;32.55;46.95;99817.17;1751465;81;20946;-58
2022/08/01 05:56:29;;;;;;;8.20;5.17;;;;;;;32.72;46.59;99817.45;1751072;81;20982;-57
2022/08/01 05:58:57;;;;;;;8.08;5.08;;;;;;;32.84;46.57;99812.78;1750569;81;21981;-59
2022/08/01 06:01:24;;;;;;;6.87;5.00;;;;;;;32.99;45.72;99813.99;1750898;81;21801;-58
2022/08/01 06:03:53;;;;;;;6.33;4.45;;;;;;;33.02;46.05;99811.96;1751207;80;21061;-58
2022/08/01 06:06:21;;;;;;;7.17;4.65;;;;;;;33.10;46.07;99815.64;1751056;80;21042;-65
2022/08/01 06:08:49;;;;;;;7.92;5.60;;;;;;;33.26;45.78;99817.02;1750824;81;21044;-61
2022/08/01 06:11:18;;;;;;;7.12;5.20;;;;;;;33.49;44.26;99817.25;1751495;81;21040;-57
2022/08/01 06:13:47;;;;;;;8.25;5.72;;;;;;;33.52;44.18;99815.98;1751636;81;21542;-57
2022/08/01 06:16:14;;;;;;;8.05;5.47;;;;;;;33.36;43.55;99813.81;1751375;81;21059;-65
2022/08/01 06:18:41;;;;;;;6.75;4.78;;;;;;;33.27;44.26;99811.85;1750446;81;22216;-65
2022/08/01 06:21:08;;;;;;;7.97;5.50;;;;;;;33.36;44.32;99810.54;1751191;81;21096;-57
2022/08/01 06:23:35;;;;;;;7.15;4.47;;;;;;;33.43;44.37;99805.89;1750874;81;20996;-58
2022/08/01 06:26:02;;;;;;;8.23;4.78;;;;;;;33.42;44.51;99806.47;1751005;81;21865;-57
2022/08/01 06:28:30;;;;;;;7.35;4.42;;;;;;;33.47;43.44;99804.66;1750484;81;20982;-58
2022/08/01 06:30:58;;;;;;;7.45;4.00;;;;;;;33.37;43.96;99806.70;1750289;81;21056;-61
2022/08/01 06:33:27;;;;;;;5.42;3.92;;;;;;;33.30;42.97;99806.55;1751187;81;21112;-57
2022/08/01 06:35:54;;;;;;;6.20;3.42;;;;;;;33.17;42.38;99803.67;1751503;81;21578;-57
2022/08/01 06:38:21;;;;;;;4.20;3.22;;;;;;;33.11;42.54;99797.76;1751108;81;21491;-62
2022/08/01 06:40:48;;;;;;;4.47;3.47;;;;;;;33.18;42.09;99793.87;1750829;80;21042;-67
2022/08/01 06:43:15;;;;;;;8.05;3.35;;;;;;;33.03;41.60;99801.94;1751566;81;21777;-57
2022/08/01 06:45:44;;;;;;;5.03;3.62;;;;;;;32.90;41.69;99794.44;1751275;81;20998;-58
2022/08/01 06:48:11;;;;;;;6.37;3.50;;;;;;;33.09;42.12;99791.12;1751190;81;21057;-58
2022/08/01 06:50:39;;;;;;;4.53;3.10;;;;;;;33.34;40.57;99799.88;1750424;81;21868;-61
2022/08/01 06:53:07;;;;;;;5.55;3.25;;;;;;;33.28;40.17;99791.80;1750700;81;21760;-59
2022/08/01 06:55:34;;;;;;;4.35;3.05;;;;;;;33.05;40.66;99786.97;1751350;80;21446;-58
2022/08/01 06:58:01;;;;;;;6.33;2.90;;;;;;;32.96;40.70;99774.74;1751455;81;21042;-57
2022/08/01 07:00:30;;;;;;;5.22;3.55;;;;;;;32.90;38.82;99782.30;1751370;81;21084;-66
2022/08/01 07:02:59;;;;;;;4.80;2.90;;;;;;;32.89;38.83;99772.63;1750394;81;21265;-59
2022/08/01 07:05:26;;;;;;;5.85;3.30;;;;;;;32.92;39.13;99770.56;1751665;81;21607;-58
2022/08/01 07:07:54;;;;;;;3.72;2.70;;;;;;;32.99;38.67;99784.86;1751741;81;21539;-59
2022/08/01 07:10:23;;;;;;;7.97;3.00;;;;;;;33.05;37.21;99790.24;1751285;81;21002;-57
2022/08/01 07:12:51;;;;;;;3.62;2.55;;;;;;;33.07;35.89;99782.56;1750566;81;20922;-62
2022/08/01 07:15:20;;;;;;;3.67;2.55;;;;;;;33.03;35.52;99773.02;1751901;81;21298;-61
2022/08/01 07:17:47;;;;;;;3.75;2.58;;;;;;;33.12;35.56;99783.69;1751747;81;21685;-58
2022/08/01 07:20:15;;;;;;;3.58;3.00;;;;;;;33.16;36.03;99794.80;1751546;81;21065;-57
2022/08/01 07:22:43;;;;;;;4.55;3.00;;;;;;;33.25;36.13;99773.58;1751209;81;21419;-62
2022/08/01 07:25:10;;;;;;;5.97;3.58;;;;;;;33.35;35.75;99773.86;1751472;81;20947;-59
2022/08/01 07:27:37;;;;;;;3.30;2.70;;;;;;;33.44;34.38;99777.73;1751753;81;21086;-58
2022/08/01 07:30:06;;;;;;;4.78;2.42;;;;;;;33.39;35.15;99775.30;1751593;81;21112;-58
2022/08/01 07:32:34;;;;;;;4.37;3.00;;;;;;;33.58;34.89;99772.71;1751536;81;21033;-62
2022/08/01 07:35:03;;;;;;;3.60;2.42;;;;;;;33.73;34.56;99778.47;1750892;81;21061;-59
2022/08/01 07:37:30;;;;;;;5.28;3.17;;;;;;;33.86;35.26;99774.52;1751777;80;20972;-59
2022/08/01 07:39:57;;;;;;;4.03;2.72;;;;;;;34.11;33.97;99766.42;1752026;81;21243;-58
2022/08/01 07:42:24;;;;;;;8.50;2.45;;;;;;;34.25;32.66;99766.53;1751691;81;21025;-59
2022/08/01 07:44:52;;;;;;;4.80;2.87;;;;;;;34.26;32.12;99768.09;1750453;81;21032;-59
2022/08/01 07:47:26;;;;;;;4.58;2.60;;;;;;;34.20;31.94;99774.33;1751415;81;21071;-58
2022/08/01 07:50:02;;;;;;;5.95;2.65;;;;;;;34.04;32.01;99777.09;1751537;81;21046;-58
2022/08/01 07:52:30;;;;;;;4.33;2.70;;;;;;;34.05;32.60;99771.88;1750398;81;21245;-64
2022/08/01 07:54:58;;;;;;;4.33;3.10;;;;;;;34.09;32.21;99772.75;1751393;81;20985;-58
2022/08/01 07:57:26;;;;;;;4.17;2.58;;;;;;;33.93;32.35;99767.92;1751524;80;20923;-57
2022/08/01 07:59:55;;;;;;;3.90;2.35;;;;;;;33.93;32.95;99767.92;1751591;81;21378;-58
2022/08/01 08:02:22;;;;;;;4.87;2.75;;;;;;;34.25;32.96;99762.48;1751568;81;21507;-65
2022/08/01 08:04:49;;;;;;;5.35;3.50;;;;;;;34.64;32.42;99769.28;1751489;81;21363;-58
2022/08/01 08:07:16;;;;;;;5.05;3.40;;;;;;;34.83;31.73;99766.55;1751461;80;21018;-60
2022/08/01 08:09:44;;;;;;;4.35;2.87;;;;;;;34.91;31.91;99769.61;1751927;81;21080;-59
2022/08/01 08:12:12;;;;;;;3.67;2.55;;;;;;;35.19;31.52;99764.51;1752035;81;21472;-58
2022/08/01 08:14:39;;;;;;;5.85;2.90;;;;;;;35.52;30.92;99763.36;1750810;81;21002;-59
2022/08/01 08:17:06;;;;;;;4.45;2.80;;;;;;;35.75;30.43;99761.19;1751474;80;21145;-57
2022/08/01 08:19:33;;;;;;;4.87;2.67;;;;;;;35.82;30.29;99761.29;1751733;81;20923;-59
2022/08/01 08:22:02;;;;;;;3.55;2.83;;;;;;;35.88;30.18;99767.17;1751624;81;20966;-58
2022/08/01 08:24:29;;;;;;;5.55;2.83;;;;;;;35.85;29.55;99764.64;1751567;80;21577;-60
2022/08/01 08:26:58;;;;;;;4.45;2.75;;;;;;;35.78;29.87;99758.52;1752000;81;21312;-58
2022/08/01 08:29:26;;;;;;;4.30;3.12;;;;;;;35.69;29.87;99751.23;1751926;81;21241;-57
2022/08/01 08:31:54;;;;;;;6.22;3.17;;;;;;;35.74;30.09;99746.06;1751285;81;21100;-57
2022/08/01 08:34:21;;;;;;;4.37;2.77;;;;;;;35.92;29.62;99744.40;1751613;81;20985;-62
2022/08/01 08:36:49;;;;;;;4.50;2.85;;;;;;;35.86;29.78;99744.50;1750914;81;21650;-64
2022/08/01 08:39:17;;;;;;;5.97;2.80;;;;;;;35.83;29.96;99739.22;1751526;81;21821;-58
2022/08/01 08:41:44;;;;;;;5.55;2.90;;;;;;;35.90;29.84;99735.05;1751547;81;21196;-57
2022/08/01 08:44:11;;;;;;;4.35;2.90;;;;;;;36.07;29.47;99730.48;1751466;81;21108;-57
2022/08/01 08:46:44;;;;;;;4.20;3.33;;;;;;;36.30;28.98;99727.67;1750925;81;21029;-58
2022/08/01 08:49:14;;;;;;;6.95;3.40;;;;;;;36.31;29.52;99729.22;1751069;81;21002;-58
2022/08/01 08:51:42;;;;;;;3.92;3.25;;;;;;;36.26;29.70;99728.98;1751622;81;20998;-57
2022/08/01 08:54:11;;;;;;;3.87;3.10;;;;;;;36.30;29.70;99730.38;1751697;81;21245;-58
2022/08/01 08:56:38;;;;;;;4.33;3.05;;;;;;;36.36;29.06;99723.45;1750903;81;21034;-61
2022/08/01 08:59:05;;;;;;;5.65;2.95;;;;;;;36.52;30.09;99729.52;1750498;81;21056;-58
2022/08/01 09:01:34;;;;;;;3.80;2.47;;;;;;;36.96;29.01;99734.24;1751311;81;20922;-57
2022/08/01 09:04:03;;;;;;;4.45;2.95;;;;;;;37.11;28.74;99730.30;1751015;81;21082;-59
2022/08/01 09:06:31;;;;;;;4.37;2.70;;;;;;;37.40;28.29;99732.09;1752847;80;21395;-57
2022/08/01 09:09:00;;;;;;;5.67;2.58;;;;;;;37.61;27.87;99730.70;1758301;80;20926;-59
2022/08/01 09:11:27;;;;;;;4.65;3.00;;;;;;;37.76;28.27;99724.78;1759165;81;21497;-57
2022/08/01 09:14:14;;;;;;;3.35;2.17;;;;;;;38.00;27.71;99719.30;1758736;81;21511;-57
2022/08/01 09:16:43;;;;;;;4.37;2.85;;;;;;;38.03;28.11;99715.81;1758993;81;21092;-58
2022/08/01 09:19:19;;;;;;;4.87;2.87;;;;;;;38.17;27.09;99715.30;1759137;81;21398;-57
2022/08/01 09:22:00;;;;;;;9.05;3.70;;;;;;;37.63;27.87;99719.66;1758902;81;20965;-66
2022/08/01 09:24:28;;;;;;;4.55;2.98;;;;;;;37.43;27.72;99720.51;1758211;81;21036;-59
2022/08/01 09:26:56;;;;;;;6.22;3.08;;;;;;;37.29;28.22;99721.72;1758559;80;21460;-58
2022/08/01 09:29:30;;;;;;;3.33;2.67;;;;;;;37.30;28.25;99715.12;1758853;81;20910;-62
2022/08/01 09:31:59;;;;;;;3.52;2.72;;;;;;;37.45;28.02;99711.37;1758765;81;21132;-57
2022/08/01 09:34:30;;;;;;;3.55;2.50;;;;;;;37.42;28.44;99709.41;1758546;80;21014;-58
2022/08/01 09:37:01;;;;;;;4.28;2.95;;;;;;;37.30;28.14;99716.48;1758958;80;21350;-57
2022/08/01 09:39:31;;;;;;;3.42;2.95;;;;;;;37.30;28.14;99716.48;1757988;81;21060;-57
2022/08/01 09:42:01;;;;;;;3.60;2.90;;;;;;;37.33;28.14;99715.73;1759488;81;26891;-57
2022/08/01 09:44:38;;;;;;;;;;;;;;;37.29;28.14;99720.36;1761241;81;21661;-57
2022/08/01 09:47:05;;;;;;;4.47;3.15;;;;;;;37.23;27.94;99709.63;1757556;80;20129;-62
2022/08/01 09:49:35;;;;;;;4.95;2.77;;;;;;;37.06;28.57;99708.34;1758663;80;21111;-60
2022/08/01 09:52:17;;;;;;;4.95;3.47;;;;;;;37.00;28.93;99703.81;1758812;80;21010;-62
2022/08/01 09:54:57;;;;;;;5.60;3.27;;;;;;;37.16;28.91;99706.27;1758759;81;21111;-66
2022/08/01 09:57:24;;;;;;;5.78;3.62;;;;;;;37.45;28.60;99701.86;1733865;81;21318;-57
2022/08/01 09:59:53;;;;;;;6.25;4.00;;;;;;;37.47;28.21;99699.56;1758476;81;21074;-59
2022/08/01 10:02:40;;;;;;;5.85;4.50;;;;;;;37.56;28.32;99700.58;1758730;80;21040;-58
2022/08/01 10:05:09;;;;;;;5.05;4.15;;;;;;;37.64;27.79;99694.02;1758874;81;21096;-58
2022/08/01 10:07:55;;;;;;;;;;;;;;;37.66;28.12;99690.35;1761969;80;20921;-59
2022/08/01 10:10:23;;;;;;;4.72;4.15;;;;;;;37.65;28.36;99694.21;1753815;80;22455;-59
2022/08/01 10:12:50;;;;;;;4.62;3.62;;;;;;;37.75;28.12;99690.00;1754269;81;21075;-57
2022/08/01 10:15:18;;;;;;;6.50;4.12;;;;;;;37.72;27.93;99694.84;1716788;81;20976;-58
2022/08/01 10:17:55;;;;;;;5.37;3.60;;;;;;;37.78;28.01;99686.52;1754290;81;21044;-57
2022/08/01 10:20:27;;;;;;;5.67;3.60;;;;;;;38.10;28.07;99688.05;1754290;81;21498;-57
2022/08/01 10:22:55;;;;;;;5.15;3.55;;;;;;;38.48;27.61;99690.53;1754236;81;21260;-57
2022/08/01 10:25:23;;;;;;;7.72;3.55;;;;;;;38.48;27.48;99683.72;1753592;81;21056;-61
2022/08/01 10:27:54;;;;;;;4.10;3.70;;;;;;;38.24;27.07;99680.52;1754137;80;21358;-57
2022/08/01 10:30:21;;;;;;;4.92;3.77;;;;;;;37.83;27.52;99677.99;1753557;81;21021;-57
2022/08/01 10:32:50;;;;;;;5.50;3.70;;;;;;;37.73;28.04;99678.16;1753919;81;22078;-57
2022/08/01 10:35:17;;;;;;;6.50;3.92;;;;;;;37.73;28.30;99671.36;1754017;80;21911;-59
2022/08/01 10:37:45;;;;;;;5.62;3.72;;;;;;;37.91;28.03;99674.75;1753740;81;20997;-57
2022/08/01 10:40:13;;;;;;;4.10;3.40;;;;;;;38.11;27.93;99673.86;1753494;80;21106;-63
2022/08/01 10:42:44;;;;;;;4.92;3.60;;;;;;;38.24;28.27;99668.27;1754181;80;21544;-57
2022/08/01 10:45:15;;;;;;;4.83;3.37;;;;;;;38.53;27.68;99680.61;1754382;81;21507;-56
2022/08/01 10:48:11;;;;;;;4.25;3.58;;;;;;;38.35;27.33;99673.20;1753557;80;21168;-58
2022/08/01 10:50:46;;;;;;;4.72;3.62;;;;;;;37.96;27.42;99663.49;1754570;81;21107;-56
2022/08/01 10:53:16;;;;;;;4.67;3.55;;;;;;;37.79;27.95;99662.23;1754146;80;20925;-57
2022/08/01 10:56:00;;;;;;;4.90;3.50;;;;;;;37.62;28.20;99661.55;1754112;81;20988;-57
2022/08/01 10:58:36;;;;;;;8.70;3.90;;;;;;;37.61;28.38;99649.13;1753262;81;20965;-57
2022/08/01 11:01:24;;;;;;;6.12;4.10;;;;;;;37.84;28.70;99652.34;1753481;80;21621;-57
2022/08/01 11:04:04;;;;;;;4.35;3.65;;;;;;;38.06;27.78;99647.80;1753964;81;21060;-58
2022/08/01 11:06:53;;;;;;;5.45;3.77;;;;;;;38.10;27.94;99647.81;1754044;81;21004;-56
2022/08/01 11:09:29;;;;;;;4.43;4.03;;;;;;;38.26;27.60;99640.07;1719594;81;21005;-57
2022/08/01 11:12:12;;;;;;;5.58;4.80;;;;;;;38.03;27.95;99634.17;1754071;80;21009;-58
2022/08/01 11:15:01;;;;;;;5.40;4.42;;;;;;;37.69;27.97;99635.75;1753946;81;21273;-57
2022/08/01 11:17:48;;;;;;;4.35;3.95;;;;;;;37.42;28.56;99627.84;1753673;81;20989;-57
2022/08/01 11:20:18;;;;;;;5.80;4.00;;;;;;;37.63;28.83;99621.76;1754491;81;21294;-56
2022/08/01 11:23:04;;;;;;;;;;;;;;;37.84;27.89;99618.34;1756310;81;20977;-66
2022/08/01 11:25:46;;;;;;;5.33;4.33;;;;;;;37.92;27.71;99621.34;1754123;81;20508;-58
2022/08/01 11:28:25;;;;;;;9.53;5.30;;;;;;;37.75;27.70;99627.44;1753903;81;21221;-61
2022/08/01 11:31:03;;;;;;;6.60;4.83;;;;;;;37.50;27.98;99632.16;1754110;81;21478;-62
2022/08/01 11:33:45;;;;;;;6.58;4.50;;;;;;;37.24;28.60;99630.45;1730108;80;21114;-58
2022/08/01 11:36:20;;;;;;;5.25;4.62;;;;;;;37.25;28.66;99633.94;1753297;81;21921;-58
2022/08/01 11:39:06;;;;;;;6.10;5.10;;;;;;;37.09;28.82;99623.91;1753633;80;20993;-59
2022/08/01 11:41:35;;;;;;;6.10;4.90;;;;;;;37.05;29.22;99617.67;1753656;80;21400;-57
2022/08/01 11:44:15;;;;;;;6.53;4.60;;;;;;;36.91;28.97;99619.11;1754204;81;20984;-58
2022/08/01 11:47:04;;;;;;;6.17;4.10;;;;;;;36.63;29.07;99624.28;1754344;81;21064;-58